This is the latest recevied weather packets stored in our database for station/object WA6ODQ-13. If no packets are shown the sender has not sent any weather packets the latest 10 day(s).
| Time | Temp. | Humidity | Pressure | Rain* | Wind** | Luminosity | Snow |
|---|---|---|---|---|---|---|---|
| 1777777783 | 14.44° C | 76% | 1007.7 hPa | 0 mm | - | 1 W/m² | - |
| 1777777480 | 15° C | 76% | 1007.8 hPa | 0 mm | - | 1 W/m² | - |
| 1777777177 | 15° C | 75% | 1007.8 hPa | 0 mm | - | 2 W/m² | - |
| 1777776874 | 15° C | 75% | 1007.7 hPa | 0 mm | - | 3 W/m² | - |
| 1777776572 | 15° C | 74% | 1007.8 hPa | 0 mm | - | 6 W/m² | - |
| 1777776268 | 15.56° C | 74% | 1007.5 hPa | 0 mm | - | 8 W/m² | - |
| 1777775965 | 15.56° C | 73% | 1007.4 hPa | 0 mm | - | 12 W/m² | - |
| 1777775662 | 15.56° C | 73% | 1007.6 hPa | 0 mm | - | 16 W/m² | - |
| 1777775360 | 15.56° C | 73% | 1007.3 hPa | 0 mm | - | 22 W/m² | - |
| 1777775060 | 16.11° C | 72% | 1007.6 hPa | 0 mm | - | 25 W/m² | - |
| 1777774756 | 16.11° C | 72% | 1007.3 hPa | 0 mm | - | 28 W/m² | - |
| 1777774453 | 16.11° C | 72% | 1007.5 hPa | 0 mm | - | 33 W/m² | - |
| 1777774150 | 16.67° C | 72% | 1007.7 hPa | 0 mm | - | 40 W/m² | - |
| 1777772936 | 17.22° C | 71% | 1007.6 hPa | 0 mm | - | 61 W/m² | - |
| 1777772065 | 17.78° C | 70% | 1007.7 hPa | 0 mm | - | 100 W/m² | - |
| 1777771762 | 17.78° C | 70% | 1007.7 hPa | 0 mm | - | 100 W/m² | - |
| 1777769337 | 18.89° C | 67% | 1007.9 hPa | 0 mm | - | 171 W/m² | - |
| 1777767823 | 18.89° C | 69% | 1007.9 hPa | 0 mm | - | 228 W/m² | - |
| 1777767215 | 18.89° C | 68% | 1008.2 hPa | 0 mm | - | 223 W/m² | - |
| 1777766307 | 19.44° C | 66% | 1008.2 hPa | 0 mm | - | 308 W/m² | - |
| 1777765701 | 19.44° C | 67% | 1008.2 hPa | 0 mm | - | 341 W/m² | - |
| 1777765398 | 19.44° C | 67% | 1008.4 hPa | 0 mm | - | 291 W/m² | - |
| 1777764791 | 20° C | 65% | 1008.6 hPa | 0 mm | - | 358 W/m² | - |
| 1777764488 | 20° C | 65% | 1008.8 hPa | 0 mm | - | 455 W/m² | - |
| 1777764184 | 20° C | 65% | 1008.5 hPa | 0 mm | - | 366 W/m² | - |
* Rain latest hour (hover to see other rain measurements)
** Current wind speed in m/s (hover to see current wind gust speed)